createdAt,value
2019-04-14T13:04:50.985Z,5.28
2019-04-14T13:05:51.029Z,5.21
2019-04-14T13:06:52.158Z,5.25
2019-04-14T13:07:52.141Z,5.25
2019-04-14T13:08:52.121Z,5.30
2019-04-14T13:09:52.178Z,5.35
2019-04-14T13:10:52.157Z,5.38
2019-04-14T13:11:52.153Z,5.42
2019-04-14T13:12:52.308Z,5.48
2019-04-14T13:13:52.254Z,5.40
2019-04-14T13:14:52.103Z,5.51
2019-04-14T13:15:52.243Z,5.60
2019-04-14T13:16:52.064Z,5.58
2019-04-14T13:17:52.163Z,5.58
2019-04-14T13:18:52.128Z,5.57
2019-04-14T13:19:52.132Z,5.53
2019-04-14T13:20:52.092Z,5.51
2019-04-14T13:21:52.144Z,5.63
2019-04-14T13:22:52.017Z,5.56
2019-04-14T13:23:52.003Z,5.68
2019-04-14T13:24:52.045Z,5.72
2019-04-14T13:25:52.267Z,5.81
2019-04-14T13:26:52.155Z,6.03
2019-04-14T13:27:52.288Z,6.04
2019-04-14T13:28:52.040Z,6.30
2019-04-14T13:29:52.066Z,6.15
2019-04-14T13:30:51.945Z,6.08
2019-04-14T13:31:51.908Z,6.09
2019-04-14T13:32:51.903Z,6.04
2019-04-14T13:33:54.709Z,6.22
2019-04-14T13:34:51.960Z,6.00
2019-04-14T13:35:51.882Z,5.90
2019-04-14T13:36:51.869Z,5.85
2019-04-14T13:37:51.857Z,5.86
2019-04-14T13:38:51.888Z,5.91
2019-04-14T13:39:52.707Z,5.81
2019-04-14T13:40:51.846Z,5.75
2019-04-14T13:41:51.833Z,5.57
2019-04-14T13:42:51.842Z,5.61
2019-04-14T13:43:51.822Z,5.76
2019-04-14T13:44:51.817Z,5.85
2019-04-14T13:45:51.800Z,5.86
2019-04-14T13:46:51.822Z,6.11
2019-04-14T13:47:51.816Z,6.14
2019-04-14T13:48:51.803Z,6.00
2019-04-14T13:49:51.799Z,6.00
2019-04-14T13:50:51.782Z,6.08
2019-04-14T13:51:51.771Z,6.15
2019-04-14T13:52:51.859Z,6.18
2019-04-14T13:53:51.808Z,5.97
2019-04-14T13:54:51.896Z,5.83
2019-04-14T13:55:51.815Z,5.89
2019-04-14T13:56:51.806Z,5.81
2019-04-14T13:57:51.811Z,5.89
2019-04-14T13:58:51.778Z,5.82
2019-04-14T13:59:51.776Z,5.86
2019-04-14T14:00:51.758Z,5.93
2019-04-14T14:01:51.743Z,5.90
2019-04-14T14:02:51.767Z,5.90
2019-04-14T14:03:51.733Z,5.99
2019-04-14T14:04:51.761Z,6.09
2019-04-14T14:05:51.715Z,6.00
2019-04-14T14:06:51.727Z,6.06
2019-04-14T14:07:51.705Z,6.03
2019-04-14T14:08:51.703Z,6.00
2019-04-14T14:09:51.720Z,6.12
2019-04-14T14:10:51.690Z,5.75
2019-04-14T14:11:51.682Z,5.81
2019-04-14T14:12:51.678Z,5.74
2019-04-14T14:13:51.661Z,5.91
2019-04-14T14:14:51.672Z,5.97
2019-04-14T14:15:51.646Z,5.93
2019-04-14T14:16:51.625Z,5.91
2019-04-14T14:17:51.648Z,5.91
2019-04-14T14:18:51.615Z,5.94
2019-04-14T14:19:51.608Z,5.72
2019-04-14T14:20:51.612Z,5.75
2019-04-14T14:21:51.602Z,5.72
2019-04-14T14:22:59.300Z,5.93
2019-04-14T14:23:53.579Z,5.82
2019-04-14T14:24:51.581Z,5.99
2019-04-14T14:25:51.570Z,5.81
2019-04-14T14:26:51.603Z,5.93
2019-04-14T14:27:51.550Z,5.61
2019-04-14T14:28:51.555Z,5.60
2019-04-14T14:29:51.533Z,5.58
2019-04-14T14:30:51.564Z,5.74
2019-04-14T14:31:51.534Z,5.63
2019-04-14T14:32:51.532Z,5.57
2019-04-14T14:33:51.519Z,5.51
2019-04-14T14:34:51.495Z,5.45
2019-04-14T14:35:51.504Z,5.40
2019-04-14T14:36:51.490Z,5.31
2019-04-14T14:37:51.471Z,5.36
2019-04-14T14:38:51.465Z,5.24
2019-04-14T14:39:51.464Z,5.38
2019-04-14T14:40:51.478Z,5.39
2019-04-14T14:41:51.465Z,5.65
2019-04-14T14:42:51.492Z,5.76
2019-04-14T14:43:51.432Z,5.74
2019-04-14T14:44:51.434Z,5.54
2019-04-14T14:45:51.443Z,5.48
2019-04-14T14:46:51.473Z,5.36
2019-04-14T14:47:51.432Z,5.38
2019-04-14T14:48:51.412Z,5.38
2019-04-14T14:49:51.414Z,5.40
2019-04-14T14:50:51.436Z,5.45
2019-04-14T14:51:51.417Z,5.28
2019-04-14T14:52:51.401Z,5.21
2019-04-14T14:53:51.389Z,5.04
2019-04-14T14:54:51.382Z,5.10
2019-04-14T14:55:51.392Z,5.24
2019-04-14T14:56:51.363Z,5.21
2019-04-14T14:57:51.360Z,5.09
2019-04-14T14:58:51.472Z,5.06
2019-04-14T14:59:51.450Z,5.02
2019-04-14T15:00:51.628Z,4.84
2019-04-14T15:01:51.574Z,4.84
2019-04-14T15:02:51.424Z,4.89
2019-04-14T15:03:51.356Z,5.00
2019-04-14T15:04:51.411Z,5.02
2019-04-14T15:05:51.628Z,5.04
2019-04-14T15:06:51.398Z,4.91
2019-04-14T15:07:51.448Z,4.84
2019-04-14T15:08:51.351Z,4.80
2019-04-14T15:09:51.291Z,4.96
2019-04-14T15:10:51.373Z,4.86
2019-04-14T15:11:51.335Z,4.99
2019-04-14T15:12:51.387Z,4.97
2019-04-14T15:13:51.491Z,5.02
2019-04-14T15:14:51.439Z,5.09
2019-04-14T15:15:51.269Z,4.96
2019-04-14T15:16:51.649Z,4.96
2019-04-14T15:17:52.043Z,4.94
2019-04-14T15:18:51.573Z,4.99
2019-04-14T15:19:51.420Z,5.02
2019-04-14T15:20:51.351Z,5.07
2019-04-14T15:21:51.360Z,5.15
2019-04-14T15:22:52.459Z,5.17
2019-04-14T15:23:52.332Z,5.30
2019-04-14T15:24:52.042Z,5.06
2019-04-14T15:25:51.395Z,5.04
2019-04-14T15:26:51.201Z,4.94
2019-04-14T15:27:51.264Z,4.86
2019-04-14T15:28:51.889Z,4.92
2019-04-14T15:29:51.155Z,4.77
2019-04-14T15:30:51.292Z,4.60
2019-04-14T15:31:51.221Z,4.58
2019-04-14T15:32:51.316Z,4.65
2019-04-14T15:33:51.197Z,4.77
2019-04-14T15:34:52.044Z,4.73
2019-04-14T15:35:51.220Z,4.67
2019-04-14T15:36:51.238Z,4.51
2019-04-14T15:37:51.314Z,4.67
2019-04-14T15:38:51.172Z,4.55
2019-04-14T15:39:51.267Z,4.60
2019-04-14T15:40:51.198Z,4.66
2019-04-14T15:41:51.136Z,4.51
2019-04-14T15:42:51.115Z,4.73
2019-04-14T15:43:51.102Z,4.77
2019-04-14T15:44:51.067Z,4.62
2019-04-14T15:45:51.566Z,4.59
2019-04-14T15:46:52.095Z,4.60
2019-04-14T15:47:51.076Z,4.51
2019-04-14T15:48:52.044Z,4.54
2019-04-14T15:49:51.063Z,4.69
2019-04-14T15:50:51.044Z,4.99
2019-04-14T15:51:51.091Z,4.88
2019-04-14T15:52:51.123Z,4.91
2019-04-14T15:53:51.156Z,4.89
2019-04-14T15:54:51.023Z,4.97
2019-04-14T15:55:51.142Z,4.85
2019-04-14T15:56:51.022Z,4.96
2019-04-14T15:57:50.946Z,5.00
2019-04-14T15:58:50.973Z,4.88
2019-04-14T15:59:50.977Z,4.72
2019-04-14T16:00:51.554Z,4.78
2019-04-14T16:01:51.145Z,4.66
2019-04-14T16:02:50.957Z,4.51
2019-04-14T16:03:50.995Z,4.59
2019-04-14T16:04:50.911Z,4.67
2019-04-14T16:05:50.910Z,4.54
2019-04-14T16:06:50.893Z,4.55
2019-04-14T16:07:50.900Z,4.50
2019-04-14T16:08:50.944Z,4.32
2019-04-14T16:09:50.926Z,4.33
2019-04-14T16:10:50.917Z,4.29
2019-04-14T16:11:50.913Z,4.15
2019-04-14T16:12:50.904Z,4.08
2019-04-14T16:13:50.928Z,4.15
2019-04-14T16:14:50.873Z,4.23
2019-04-14T16:15:50.847Z,4.20
2019-04-14T16:16:50.834Z,4.22
2019-04-14T16:17:50.842Z,4.27
2019-04-14T16:18:50.839Z,4.34
2019-04-14T16:19:50.858Z,4.36
2019-04-14T16:20:50.891Z,4.48
2019-04-14T16:21:50.866Z,4.47
2019-04-14T16:22:50.859Z,4.41
2019-04-14T16:23:51.150Z,4.40
2019-04-14T16:24:50.832Z,4.27
2019-04-14T16:25:50.772Z,4.15
2019-04-14T16:26:50.769Z,4.18
2019-04-14T16:27:50.777Z,4.18
2019-04-14T16:28:50.801Z,4.16
2019-04-14T16:29:50.886Z,4.18
2019-04-14T16:30:50.796Z,4.06
2019-04-14T16:31:50.928Z,4.12
2019-04-14T16:32:50.766Z,4.04
2019-04-14T16:33:50.726Z,4.06
2019-04-14T16:34:50.752Z,4.00
2019-04-14T16:35:50.721Z,4.05
2019-04-14T16:36:50.755Z,4.08
2019-04-14T16:37:50.734Z,4.04
2019-04-14T16:38:50.689Z,4.02
2019-04-14T16:39:50.701Z,4.05
2019-04-14T16:40:50.666Z,4.14
2019-04-14T16:41:50.655Z,4.12
2019-04-14T16:42:50.654Z,4.06
2019-04-14T16:43:50.655Z,4.06
2019-04-14T16:44:51.185Z,3.98
2019-04-14T16:45:50.624Z,4.02
2019-04-14T16:46:50.648Z,4.05
2019-04-14T16:47:50.663Z,4.06
2019-04-14T16:48:50.635Z,4.04
2019-04-14T16:49:50.589Z,4.18
2019-04-14T16:50:50.606Z,4.15
2019-04-14T16:51:50.683Z,4.16
2019-04-14T16:52:50.595Z,4.06
2019-04-14T16:54:02.473Z,4.00
2019-04-14T16:54:51.600Z,3.98
2019-04-14T16:55:50.550Z,4.11
2019-04-14T16:56:50.559Z,4.04
2019-04-14T16:57:50.578Z,4.02
2019-04-14T16:58:50.535Z,4.02
2019-04-14T16:59:50.546Z,4.04
2019-04-14T17:00:50.567Z,4.02
2019-04-14T17:01:50.542Z,4.02
2019-04-14T17:02:50.543Z,3.91
2019-04-14T17:03:50.509Z,3.87
2019-04-14T17:04:50.524Z,3.91
2019-04-14T17:05:50.513Z,3.98
2019-04-14T17:06:50.517Z,3.97
2019-04-14T17:07:53.401Z,3.88
2019-04-14T17:08:50.480Z,3.94
2019-04-14T17:09:50.483Z,3.90
2019-04-14T17:10:50.469Z,3.80
2019-04-14T17:11:50.459Z,3.86
2019-04-14T17:12:50.450Z,3.88
2019-04-14T17:13:50.450Z,3.86
2019-04-14T17:14:50.446Z,3.79
2019-04-14T17:15:50.429Z,3.72
2019-04-14T17:16:50.416Z,3.70
2019-04-14T17:17:50.428Z,3.75
2019-04-14T17:18:50.405Z,3.68
2019-04-14T17:19:50.430Z,3.61
2019-04-14T17:20:50.418Z,3.61
2019-04-14T17:21:50.386Z,3.68
2019-04-14T17:22:50.412Z,3.66
2019-04-14T17:23:50.423Z,3.72
2019-04-14T17:24:50.357Z,3.58
2019-04-14T17:25:50.363Z,3.55
2019-04-14T17:26:50.346Z,3.65
2019-04-14T17:27:50.389Z,3.68
2019-04-14T17:28:50.339Z,3.58
2019-04-14T17:29:50.314Z,3.62
2019-04-14T17:30:50.338Z,3.58
2019-04-14T17:31:50.331Z,3.61
2019-04-14T17:32:50.324Z,3.68
2019-04-14T17:33:50.320Z,3.69
2019-04-14T17:34:50.320Z,3.70
2019-04-14T17:35:50.347Z,3.66
2019-04-14T17:36:50.293Z,3.70
2019-04-14T17:37:50.324Z,3.66
2019-04-14T17:38:50.303Z,3.62
2019-04-14T17:39:50.287Z,3.65
2019-04-14T17:40:50.282Z,3.52
2019-04-14T17:41:50.294Z,3.62
2019-04-14T17:42:50.282Z,3.52
2019-04-14T17:43:50.305Z,3.55
2019-04-14T17:44:51.061Z,3.51
2019-04-14T17:45:51.783Z,3.58
2019-04-14T17:46:50.361Z,3.55
2019-04-14T17:47:50.224Z,3.61
2019-04-14T17:48:50.261Z,3.58
2019-04-14T17:49:50.210Z,3.61
2019-04-14T17:50:50.230Z,3.58
2019-04-14T17:51:50.226Z,3.60
2019-04-14T17:52:50.248Z,3.60
2019-04-14T17:53:50.208Z,3.52
2019-04-14T17:54:50.194Z,3.52
2019-04-14T17:55:50.454Z,3.52
2019-04-14T17:56:50.228Z,3.52
2019-04-14T17:57:50.183Z,3.60
2019-04-14T17:58:50.232Z,3.70
2019-04-14T17:59:50.183Z,3.65
2019-04-14T18:00:50.800Z,3.58
2019-04-14T18:01:50.283Z,3.52
2019-04-14T18:02:50.220Z,3.58
2019-04-14T18:03:50.150Z,3.58
2019-04-14T18:04:50.174Z,3.47
2019-04-14T18:05:50.170Z,3.61
2019-04-14T18:06:50.126Z,3.51
2019-04-14T18:07:50.113Z,3.58
2019-04-14T18:08:50.184Z,3.47
2019-04-14T18:09:50.118Z,3.51
2019-04-14T18:10:50.123Z,3.61
2019-04-14T18:11:50.165Z,3.48
2019-04-14T18:12:50.225Z,3.51
2019-04-14T18:13:50.106Z,3.58
2019-04-14T18:14:50.049Z,3.45
2019-04-14T18:15:50.049Z,3.55
2019-04-14T18:16:50.028Z,3.58
2019-04-14T18:17:50.044Z,3.52
2019-04-14T18:18:50.058Z,3.54
2019-04-14T18:19:50.025Z,3.52
2019-04-14T18:20:50.023Z,3.45
2019-04-14T18:21:50.014Z,3.48
2019-04-14T18:22:49.992Z,3.47
2019-04-14T18:23:50.019Z,3.43
2019-04-14T18:24:49.983Z,3.45
2019-04-14T18:25:50.969Z,3.57
2019-04-14T18:26:50.657Z,3.54
2019-04-14T18:27:49.996Z,3.51
2019-04-14T18:28:49.995Z,3.45
2019-04-14T18:29:49.967Z,3.39
2019-04-14T18:30:49.943Z,3.35
2019-04-14T18:31:49.960Z,3.47
2019-04-14T18:32:49.943Z,3.50
2019-04-14T18:33:50.972Z,3.54
2019-04-14T18:34:49.937Z,3.42
2019-04-14T18:35:49.942Z,3.40
2019-04-14T18:36:49.925Z,3.32
2019-04-14T18:37:49.935Z,3.40
2019-04-14T18:38:49.925Z,3.45
2019-04-14T18:39:50.081Z,3.47
2019-04-14T18:40:50.903Z,3.39
2019-04-14T18:41:49.918Z,3.32
2019-04-14T18:42:49.876Z,3.39
2019-04-14T18:43:49.871Z,3.54
2019-04-14T18:44:49.884Z,3.47
2019-04-14T18:45:49.850Z,3.40
2019-04-14T18:46:49.831Z,3.40
2019-04-14T18:47:49.869Z,3.42
2019-04-14T18:48:49.821Z,3.45
2019-04-14T18:49:49.851Z,3.50
2019-04-14T18:50:51.955Z,3.42
2019-04-14T18:51:49.812Z,3.39
2019-04-14T18:52:49.828Z,3.45
2019-04-14T18:53:49.857Z,3.45
2019-04-14T18:54:54.760Z,3.36
2019-04-14T18:55:51.825Z,3.51
2019-04-14T18:56:49.818Z,3.42
2019-04-14T18:57:49.813Z,3.45
2019-04-14T18:58:49.816Z,3.42
2019-04-14T18:59:49.820Z,3.42
2019-04-14T19:00:49.784Z,3.39
2019-04-14T19:01:49.794Z,3.42
2019-04-14T19:02:49.782Z,3.35
2019-04-14T19:03:49.756Z,3.40
2019-04-14T19:04:49.784Z,3.42
2019-04-14T19:05:49.776Z,3.42
2019-04-14T19:06:49.770Z,3.40
2019-04-14T19:07:49.757Z,3.42
2019-04-14T19:08:49.751Z,3.36
2019-04-14T19:09:49.748Z,3.40
2019-04-14T19:10:49.714Z,3.36
2019-04-14T19:11:49.722Z,3.36
2019-04-14T19:12:49.702Z,3.24
2019-04-14T19:13:49.705Z,3.39
2019-04-14T19:14:49.705Z,3.28
2019-04-14T19:15:49.682Z,3.29
2019-04-14T19:16:49.685Z,3.40
2019-04-14T19:17:49.686Z,3.39
2019-04-14T19:18:49.670Z,3.32
2019-04-14T19:20:00.790Z,3.36
2019-04-14T19:20:51.706Z,3.31
2019-04-14T19:21:49.668Z,3.31
2019-04-14T19:22:49.664Z,3.32
2019-04-14T19:23:49.636Z,3.29
2019-04-14T19:24:49.675Z,3.32
2019-04-14T19:25:49.639Z,3.36
2019-04-14T19:26:49.618Z,3.26
2019-04-14T19:27:49.641Z,3.33
2019-04-14T19:28:49.621Z,3.23
2019-04-14T19:29:49.634Z,3.29
2019-04-14T19:30:49.616Z,3.32
2019-04-14T19:31:49.615Z,3.26
2019-04-14T19:32:49.588Z,3.31
2019-04-14T19:33:49.601Z,3.20
2019-04-14T19:34:49.606Z,3.28
2019-04-14T19:35:49.610Z,3.32
2019-04-14T19:36:49.588Z,3.24
2019-04-14T19:37:49.588Z,3.28
2019-04-14T19:38:49.574Z,3.23
2019-04-14T19:39:49.626Z,3.28
2019-04-14T19:40:49.587Z,3.31
2019-04-14T19:41:49.586Z,3.33
2019-04-14T19:42:49.553Z,3.26
2019-04-14T19:43:49.574Z,3.26
2019-04-14T19:44:49.548Z,3.29
2019-04-14T19:45:49.564Z,3.33
2019-04-14T19:46:49.541Z,3.26
2019-04-14T19:47:49.534Z,3.31
2019-04-14T19:48:49.538Z,3.26
2019-04-14T19:49:49.510Z,3.28
2019-04-14T19:50:49.526Z,3.26
2019-04-14T19:51:49.500Z,3.31
2019-04-14T19:52:49.498Z,3.31
2019-04-14T19:53:49.485Z,3.21
2019-04-14T19:54:49.499Z,3.15
2019-04-14T19:55:49.509Z,3.23
2019-04-14T19:56:49.492Z,3.24
2019-04-14T19:57:49.488Z,3.26
2019-04-14T19:58:49.481Z,3.21
2019-04-14T19:59:49.477Z,3.33
2019-04-14T20:00:49.473Z,3.29
2019-04-14T20:01:49.448Z,3.24
2019-04-14T20:02:49.437Z,3.28
2019-04-14T20:03:49.455Z,3.24
2019-04-14T20:04:49.436Z,3.33
2019-04-14T20:05:49.440Z,3.28
2019-04-14T20:06:49.419Z,3.21
2019-04-14T20:07:49.404Z,3.24
2019-04-14T20:08:49.404Z,3.17
2019-04-14T20:09:49.399Z,3.03
2019-04-14T20:10:49.402Z,3.08
2019-04-14T20:11:49.386Z,3.15
2019-04-14T20:12:49.377Z,3.14
2019-04-14T20:13:49.368Z,3.14
2019-04-14T20:14:49.367Z,3.05
2019-04-14T20:15:49.384Z,2.99
2019-04-14T20:16:49.352Z,3.17
2019-04-14T20:17:49.343Z,3.00
2019-04-14T20:18:49.389Z,3.05
2019-04-14T20:19:49.394Z,3.10
2019-04-14T20:20:49.334Z,3.06
2019-04-14T20:21:49.304Z,3.05
2019-04-14T20:22:49.313Z,3.03
2019-04-14T20:23:51.863Z,3.05
2019-04-14T20:24:49.329Z,3.00
2019-04-14T20:25:49.313Z,3.06
2019-04-14T20:26:50.208Z,2.97
2019-04-14T20:27:50.258Z,3.02
2019-04-14T20:28:49.257Z,3.00
2019-04-14T20:29:49.304Z,2.97
2019-04-14T20:30:49.268Z,2.99
2019-04-14T20:31:49.242Z,2.96
2019-04-14T20:32:49.330Z,2.95
2019-04-14T20:33:49.231Z,3.05
2019-04-14T20:34:49.200Z,2.92
2019-04-14T20:35:49.344Z,3.02
2019-04-14T20:36:49.250Z,3.03
2019-04-14T20:37:49.300Z,2.99
2019-04-14T20:38:49.329Z,2.85
2019-04-14T20:39:49.202Z,2.90
2019-04-14T20:40:49.217Z,3.02
2019-04-14T20:41:49.224Z,2.90
2019-04-14T20:42:49.143Z,2.96
2019-04-14T20:43:49.152Z,2.96
2019-04-14T20:44:49.212Z,2.95
2019-04-14T20:45:49.203Z,2.90
2019-04-14T20:46:49.177Z,2.92
2019-04-14T20:47:49.310Z,2.97
2019-04-14T20:48:49.202Z,2.95
2019-04-14T20:49:49.192Z,2.95
2019-04-14T20:50:49.179Z,2.96
2019-04-14T20:51:49.271Z,3.02
2019-04-14T20:52:49.124Z,3.02
2019-04-14T20:53:49.141Z,2.93
2019-04-14T20:54:49.127Z,2.95
2019-04-14T20:55:49.114Z,2.90
2019-04-14T20:56:49.129Z,2.90
2019-04-14T20:57:49.187Z,2.92
2019-04-14T20:58:49.120Z,2.97
2019-04-14T20:59:49.102Z,2.81
2019-04-14T21:00:49.137Z,2.89
2019-04-14T21:01:49.087Z,2.81
2019-04-14T21:02:49.112Z,2.87
2019-04-14T21:03:49.120Z,2.92
2019-04-14T21:04:49.064Z,2.81
2019-04-14T21:05:51.426Z,3.02
2019-04-14T21:06:49.059Z,2.90
2019-04-14T21:07:49.049Z,2.97
2019-04-14T21:08:49.028Z,3.05
2019-04-14T21:09:49.045Z,2.99
2019-04-14T21:10:49.070Z,2.87
2019-04-14T21:11:49.030Z,2.89
2019-04-14T21:12:48.998Z,2.95
2019-04-14T21:13:51.386Z,2.95
2019-04-14T21:14:49.025Z,2.87
2019-04-14T21:15:49.018Z,2.89
2019-04-14T21:16:49.052Z,2.99
2019-04-14T21:17:49.003Z,2.90
2019-04-14T21:18:49.048Z,2.99
2019-04-14T21:19:49.009Z,3.02
2019-04-14T21:20:49.006Z,2.95
2019-04-14T21:21:49.065Z,2.93
2019-04-14T21:22:48.986Z,2.89
2019-04-14T21:23:48.954Z,2.89
2019-04-14T21:24:48.956Z,2.90
2019-04-14T21:25:59.588Z,2.82
2019-04-14T21:26:51.197Z,2.97
2019-04-14T21:27:48.947Z,2.85
2019-04-14T21:28:48.889Z,3.03
2019-04-14T21:29:48.874Z,3.00
2019-04-14T21:30:48.882Z,2.95
2019-04-14T21:31:48.902Z,2.92
2019-04-14T21:32:48.913Z,2.87
2019-04-14T21:33:48.851Z,3.05
2019-04-14T21:34:48.844Z,2.95
2019-04-14T21:35:48.961Z,2.95
2019-04-14T21:36:49.034Z,2.95
2019-04-14T21:37:49.684Z,3.00
2019-04-14T21:38:48.803Z,3.02
2019-04-14T21:39:48.833Z,2.96
2019-04-14T21:40:48.833Z,2.95
2019-04-14T21:41:48.797Z,3.02
2019-04-14T21:42:48.798Z,2.92
2019-04-14T21:43:48.770Z,2.96
2019-04-14T21:44:48.762Z,2.97
2019-04-14T21:45:48.765Z,3.00
2019-04-14T21:46:48.774Z,3.06
2019-04-14T21:47:48.792Z,3.00
2019-04-14T21:48:48.728Z,3.02
2019-04-14T21:49:48.744Z,3.06
2019-04-14T21:50:48.732Z,2.99
2019-04-14T21:51:48.720Z,3.00
2019-04-14T21:52:49.847Z,3.08
2019-04-14T21:53:49.728Z,3.10
2019-04-14T21:54:48.718Z,3.17
2019-04-14T21:55:48.714Z,3.10
2019-04-14T21:56:48.734Z,3.13
2019-04-14T21:57:49.016Z,3.13
2019-04-14T21:58:48.731Z,3.14
2019-04-14T21:59:48.725Z,3.08
2019-04-14T22:00:48.726Z,3.14
2019-04-14T22:01:48.797Z,3.13
2019-04-14T22:02:48.746Z,3.17
2019-04-14T22:03:49.768Z,3.08
2019-04-14T22:04:48.689Z,3.15
2019-04-14T22:05:48.737Z,3.24
2019-04-14T22:06:48.736Z,3.24
2019-04-14T22:07:48.670Z,3.26
2019-04-14T22:08:48.766Z,3.29
2019-04-14T22:09:48.678Z,3.20
2019-04-14T22:10:48.659Z,3.24
2019-04-14T22:11:48.649Z,3.24
2019-04-14T22:12:48.714Z,3.26
2019-04-14T22:13:51.183Z,3.29
2019-04-14T22:14:48.721Z,3.21
2019-04-14T22:15:48.636Z,3.23
2019-04-14T22:16:48.594Z,3.28
2019-04-14T22:17:48.569Z,3.29
2019-04-14T22:18:48.589Z,3.23
2019-04-14T22:19:48.621Z,3.36
2019-04-14T22:20:48.565Z,3.26
2019-04-14T22:21:48.586Z,3.29
2019-04-14T22:22:48.659Z,3.26
2019-04-14T22:24:00.597Z,3.26
2019-04-14T22:24:50.608Z,3.31
2019-04-14T22:25:48.581Z,3.28
2019-04-14T22:26:48.533Z,3.32
2019-04-14T22:27:48.519Z,3.31
2019-04-14T22:28:48.512Z,3.32
2019-04-14T22:29:48.509Z,3.26
2019-04-14T22:30:48.488Z,3.31
2019-04-14T22:31:48.505Z,3.26
2019-04-14T22:32:49.525Z,3.23
2019-04-14T22:33:48.473Z,3.21
2019-04-14T22:34:48.521Z,3.24
2019-04-14T22:35:48.493Z,3.23
2019-04-14T22:36:48.486Z,3.24
2019-04-14T22:37:48.481Z,3.24
2019-04-14T22:38:48.489Z,3.24
2019-04-14T22:39:48.496Z,3.24
2019-04-14T22:40:48.490Z,3.23
2019-04-14T22:41:48.464Z,3.21
2019-04-14T22:42:48.423Z,3.26
2019-04-14T22:43:48.449Z,3.28
2019-04-14T22:44:48.478Z,3.23
2019-04-14T22:45:48.484Z,3.24
2019-04-14T22:46:48.516Z,3.28
2019-04-14T22:47:48.464Z,3.32
2019-04-14T22:48:48.516Z,3.31
2019-04-14T22:49:48.513Z,3.29
2019-04-14T22:50:48.457Z,3.35
2019-04-14T22:51:48.497Z,3.35
2019-04-14T22:52:48.483Z,3.39
2019-04-14T22:53:48.419Z,3.40
2019-04-14T22:54:48.407Z,3.35
2019-04-14T22:55:48.404Z,3.33
2019-04-14T22:56:48.437Z,3.42
2019-04-14T22:57:48.403Z,3.31
2019-04-14T22:58:48.440Z,3.28
2019-04-14T22:59:48.509Z,3.45
2019-04-14T23:00:48.409Z,3.40
2019-04-14T23:01:48.374Z,3.47
2019-04-14T23:02:48.419Z,3.36
2019-04-14T23:03:48.441Z,3.39
2019-04-14T23:04:48.377Z,3.40
2019-04-14T23:05:48.420Z,3.36
2019-04-14T23:06:48.454Z,3.40
2019-04-14T23:07:48.593Z,3.39
2019-04-14T23:08:48.370Z,3.24
2019-04-14T23:09:48.422Z,3.29
2019-04-14T23:10:48.439Z,3.31
2019-04-14T23:11:48.329Z,3.35
2019-04-14T23:12:48.354Z,3.29
2019-04-14T23:13:48.367Z,3.45
2019-04-14T23:14:48.330Z,3.42
2019-04-14T23:15:48.413Z,3.33
2019-04-14T23:16:48.337Z,3.39
2019-04-14T23:17:48.335Z,3.40
2019-04-14T23:18:48.325Z,3.39
2019-04-14T23:19:48.298Z,3.39
2019-04-14T23:20:48.403Z,3.47
2019-04-14T23:21:48.344Z,3.47
2019-04-14T23:22:48.271Z,3.39
2019-04-14T23:23:48.284Z,3.47
2019-04-14T23:24:48.412Z,3.43
2019-04-14T23:25:48.307Z,3.42
2019-04-14T23:26:52.747Z,3.47
2019-04-14T23:27:50.243Z,3.52
2019-04-14T23:28:48.199Z,3.51
2019-04-14T23:29:48.244Z,3.54
2019-04-14T23:30:48.183Z,3.50
2019-04-14T23:31:48.285Z,3.50
2019-04-14T23:32:48.248Z,3.60
2019-04-14T23:33:48.252Z,3.54
2019-04-14T23:34:48.179Z,3.47
2019-04-14T23:35:48.175Z,3.51
2019-04-14T23:36:48.193Z,3.52
2019-04-14T23:37:48.172Z,3.50
2019-04-14T23:38:48.156Z,3.45
2019-04-14T23:39:48.151Z,3.54
2019-04-14T23:40:48.148Z,3.51
2019-04-14T23:41:48.164Z,3.52
2019-04-14T23:42:48.133Z,3.52
2019-04-14T23:43:48.135Z,3.55
2019-04-14T23:44:48.133Z,3.48
2019-04-14T23:45:48.159Z,3.51
2019-04-14T23:46:48.295Z,3.58
2019-04-14T23:47:48.112Z,3.47
2019-04-14T23:48:48.094Z,3.61
2019-04-14T23:49:48.083Z,3.48
2019-04-14T23:50:48.109Z,3.55
2019-04-14T23:51:48.094Z,3.55
2019-04-14T23:52:48.077Z,3.50
2019-04-14T23:53:48.073Z,3.58
2019-04-14T23:54:48.098Z,3.50
2019-04-14T23:55:50.186Z,3.51
2019-04-14T23:56:48.061Z,3.52
2019-04-14T23:57:48.048Z,3.52
2019-04-14T23:58:48.023Z,3.57
2019-04-14T23:59:48.086Z,3.58
